Terminal Aerodrome Forecast
Issued by NWS

Home | Current Version | Previous Version | Text Only | Print | Product List | Glossary On
Versions: 1 2 3 4 5 6 7 8 9 10 11 12 13 14 15
970
FTUS44 KMAF 030643 AAA
TAFFST
TAF AMD
KFST 030643Z 0307/0406 29009KT P6SM OVC019
      TEMPO 0307/0310 2SM -RA BR OVC003
     FM031000 01009KT 3SM -RADZ BR OVC005=

USA.gov is the U.S. government's official web portal to all federal, state and local government web resources and services.